createdAt,value
2018-12-02T00:00:49.866Z,6.11
2018-12-02T00:03:18.672Z,5.44
2018-12-02T00:05:47.190Z,6.16
2018-12-02T00:08:15.964Z,6.16
2018-12-02T00:10:44.530Z,6.17
2018-12-02T00:13:13.225Z,6.19
2018-12-02T00:15:42.330Z,6.19
2018-12-02T00:18:12.213Z,6.18
2018-12-02T00:20:41.145Z,6.20
2018-12-02T00:23:10.176Z,6.21
2018-12-02T00:25:38.924Z,6.21
2018-12-02T00:28:08.859Z,6.22
2018-12-02T00:30:37.885Z,6.23
2018-12-02T00:33:07.131Z,6.25
2018-12-02T00:35:36.230Z,6.25
2018-12-02T00:38:06.442Z,6.29
2018-12-02T00:40:35.336Z,6.32
2018-12-02T00:43:04.125Z,6.32
2018-12-02T00:45:34.858Z,6.33
2018-12-02T00:48:04.806Z,6.35
2018-12-02T00:50:33.764Z,5.99
2018-12-02T00:53:02.552Z,6.38
2018-12-02T00:55:35.548Z,6.41
2018-12-02T00:58:04.223Z,6.40
2018-12-02T01:00:32.786Z,6.03
2018-12-02T01:03:01.388Z,6.42
2018-12-02T01:05:30.272Z,6.45
2018-12-02T01:07:58.865Z,6.46
2018-12-02T01:10:27.782Z,6.46
2018-12-02T01:12:57.519Z,6.46
2018-12-02T01:15:31.574Z,6.47
2018-12-02T01:18:00.123Z,6.47
2018-12-02T01:20:28.758Z,6.43
2018-12-02T01:22:57.321Z,6.51
2018-12-02T01:25:26.349Z,6.53
2018-12-02T01:27:54.999Z,6.55
2018-12-02T01:30:24.607Z,6.57
2018-12-02T01:32:54.749Z,6.58
2018-12-02T01:35:23.720Z,6.53
2018-12-02T01:37:52.273Z,6.59
2018-12-02T01:40:24.666Z,6.60
2018-12-02T01:42:54.178Z,6.62
2018-12-02T01:45:25.922Z,6.65
2018-12-02T01:47:55.736Z,6.64
2018-12-02T01:50:26.414Z,6.65
2018-12-02T01:52:56.125Z,6.64
2018-12-02T01:55:24.669Z,6.65
2018-12-02T01:57:53.309Z,6.65
2018-12-02T02:00:23.066Z,6.67
2018-12-02T02:02:52.101Z,6.67
2018-12-02T02:05:21.700Z,6.63
2018-12-02T02:07:50.262Z,6.67
2018-12-02T02:10:21.695Z,6.70
2018-12-02T02:12:50.354Z,6.71
2018-12-02T02:15:18.963Z,6.72
2018-12-02T02:17:47.903Z,6.70
2018-12-02T02:20:17.590Z,6.33
2018-12-02T02:22:46.752Z,6.71
2018-12-02T02:25:16.162Z,6.69
2018-12-02T02:27:45.826Z,6.69
2018-12-02T02:30:19.478Z,6.20
2018-12-02T02:32:48.371Z,6.03
2018-12-02T02:35:18.164Z,6.71
2018-12-02T02:37:47.229Z,6.70
2018-12-02T02:40:18.826Z,6.72
2018-12-02T02:42:47.622Z,6.73
2018-12-02T02:45:16.563Z,6.72
2018-12-02T02:47:45.451Z,6.72
2018-12-02T02:50:16.098Z,6.71
2018-12-02T02:52:46.026Z,6.72
2018-12-02T02:55:14.562Z,6.73
2018-12-02T02:57:43.166Z,6.73
2018-12-02T03:00:18.383Z,6.73
2018-12-02T03:02:47.055Z,6.74
2018-12-02T03:05:16.321Z,6.75
2018-12-02T03:07:44.991Z,6.75
2018-12-02T03:10:15.718Z,6.75
2018-12-02T03:12:45.259Z,6.77
2018-12-02T03:15:16.593Z,6.74
2018-12-02T03:17:45.247Z,6.75
2018-12-02T03:20:16.529Z,6.75
2018-12-02T03:22:47.152Z,6.73
2018-12-02T03:25:16.761Z,6.73
2018-12-02T03:27:45.302Z,6.73
2018-12-02T03:30:15.718Z,6.72
2018-12-02T03:32:44.282Z,6.72
2018-12-02T03:35:14.105Z,6.72
2018-12-02T03:37:42.670Z,6.69
2018-12-02T03:40:28.128Z,6.72
2018-12-02T03:42:57.111Z,6.72
2018-12-02T03:45:27.567Z,6.72
2018-12-02T03:47:56.639Z,6.70
2018-12-02T03:50:25.247Z,6.69
2018-12-02T03:52:53.823Z,6.67
2018-12-02T03:55:22.384Z,6.65
2018-12-02T03:57:50.934Z,6.65
2018-12-02T04:00:26.211Z,6.65
2018-12-02T04:02:55.877Z,6.65
2018-12-02T04:05:25.478Z,6.65
2018-12-02T04:07:54.361Z,6.64
2018-12-02T04:10:23.011Z,6.63
2018-12-02T04:12:52.442Z,6.62
2018-12-02T04:15:25.102Z,6.63
2018-12-02T04:17:53.820Z,6.57
2018-12-02T04:20:22.662Z,6.62
2018-12-02T04:22:52.498Z,6.61
2018-12-02T04:25:24.255Z,6.61
2018-12-02T04:27:52.910Z,6.57
2018-12-02T04:30:22.191Z,6.63
2018-12-02T04:32:51.733Z,6.64
2018-12-02T04:35:22.174Z,6.62
2018-12-02T04:37:50.759Z,6.65
2018-12-02T04:40:19.394Z,6.66
2018-12-02T04:42:48.407Z,6.65
2018-12-02T04:45:17.836Z,6.65
2018-12-02T04:47:46.895Z,6.26
2018-12-02T04:50:20.445Z,6.62
2018-12-02T04:52:49.038Z,6.58
2018-12-02T04:55:17.640Z,6.57
2018-12-02T04:57:46.245Z,6.57
2018-12-02T05:00:16.548Z,6.56
2018-12-02T05:02:49.134Z,6.53
2018-12-02T05:05:19.993Z,6.52
2018-12-02T05:07:48.593Z,6.51
2018-12-02T05:10:18.146Z,6.10
2018-12-02T05:12:46.805Z,6.51
2018-12-02T05:15:16.397Z,6.51
2018-12-02T05:17:45.006Z,6.52
2018-12-02T05:20:15.648Z,6.54
2018-12-02T05:22:44.279Z,6.52
2018-12-02T05:25:17.358Z,6.51
2018-12-02T05:27:42.845Z,6.49
2018-12-02T05:30:13.288Z,6.51
2018-12-02T05:32:42.045Z,6.46
2018-12-02T05:35:11.718Z,6.46
2018-12-02T05:37:40.376Z,6.46
2018-12-02T05:40:13.870Z,6.45
2018-12-02T05:42:42.552Z,6.42
2018-12-02T05:45:14.172Z,6.42
2018-12-02T05:47:42.766Z,6.41
2018-12-02T05:50:13.766Z,6.34
2018-12-02T05:52:42.340Z,6.36
2018-12-02T05:55:12.482Z,5.98
2018-12-02T05:57:41.063Z,6.36
2018-12-02T06:00:13.234Z,6.36
2018-12-02T06:02:42.050Z,6.35
2018-12-02T06:05:11.543Z,6.35
2018-12-02T06:07:40.213Z,6.35
2018-12-02T06:10:14.050Z,6.31
2018-12-02T06:12:42.950Z,6.33
2018-12-02T06:15:12.618Z,6.32
2018-12-02T06:17:41.390Z,6.28
2018-12-02T06:20:26.531Z,6.26
2018-12-02T06:22:57.062Z,6.23
2018-12-02T06:25:25.736Z,6.22
2018-12-02T06:27:54.417Z,6.21
2018-12-02T06:30:24.770Z,6.17
2018-12-02T06:32:57.425Z,6.16
2018-12-02T06:35:26.096Z,6.14
2018-12-02T06:37:55.737Z,6.14
2018-12-02T06:40:25.430Z,6.16
2018-12-02T06:42:54.092Z,6.16
2018-12-02T06:45:23.042Z,6.16
2018-12-02T06:47:51.578Z,6.16
2018-12-02T06:50:22.149Z,6.16
2018-12-02T06:52:50.770Z,6.18
2018-12-02T06:55:38.729Z,6.17
2018-12-02T07:00:48.562Z,6.19
2018-12-02T07:04:27.056Z,6.17
2018-12-02T07:06:55.710Z,6.16
2018-12-02T07:09:31.502Z,6.17
2018-12-02T07:12:01.601Z,6.18
2018-12-02T07:14:32.405Z,6.18
2018-12-02T07:17:02.953Z,6.20
2018-12-02T07:19:41.322Z,6.19
2018-12-02T07:22:22.277Z,6.19
2018-12-02T07:24:57.668Z,6.14
2018-12-02T07:27:26.395Z,5.86
2018-12-02T07:29:54.983Z,6.18
2018-12-02T07:32:23.812Z,6.18
2018-12-02T07:34:52.434Z,6.20
2018-12-02T07:37:22.909Z,6.17
2018-12-02T07:40:08.307Z,6.19
2018-12-02T07:42:36.890Z,6.21
2018-12-02T07:45:05.551Z,6.19
2018-12-02T07:47:34.361Z,6.21
2018-12-02T07:50:02.909Z,6.23
2018-12-02T07:52:31.459Z,6.23
2018-12-02T07:55:00.024Z,6.24
2018-12-02T07:57:28.670Z,6.25
2018-12-02T07:59:57.362Z,6.14
2018-12-02T08:02:25.881Z,6.26
2018-12-02T08:04:54.612Z,5.84
2018-12-02T08:07:23.230Z,6.26
2018-12-02T08:09:51.933Z,6.23
2018-12-02T08:12:20.512Z,6.25
2018-12-02T08:14:49.154Z,6.23
2018-12-02T08:17:17.789Z,6.24
2018-12-02T08:19:46.422Z,6.25
2018-12-02T08:22:15.211Z,6.24
2018-12-02T08:24:43.775Z,6.22
2018-12-02T08:27:12.433Z,6.17
2018-12-02T08:29:41.094Z,6.19
2018-12-02T08:32:09.716Z,6.21
2018-12-02T08:34:38.340Z,6.20
2018-12-02T08:37:06.939Z,6.18
2018-12-02T08:39:35.998Z,6.18
2018-12-02T08:42:04.910Z,6.19
2018-12-02T08:44:34.019Z,6.19
2018-12-02T08:47:02.578Z,6.20
2018-12-02T08:49:31.386Z,6.19
2018-12-02T08:52:00.007Z,6.20
2018-12-02T08:54:28.586Z,6.21
2018-12-02T08:56:57.110Z,6.21
2018-12-02T08:59:25.832Z,6.18
2018-12-02T09:01:54.861Z,6.22
2018-12-02T09:04:23.448Z,6.20
2018-12-02T09:06:52.376Z,6.23
2018-12-02T09:09:21.682Z,6.23
2018-12-02T09:11:50.388Z,6.25
2018-12-02T09:14:18.918Z,6.23
2018-12-02T09:16:47.678Z,6.26
2018-12-02T09:19:16.202Z,6.22
2018-12-02T09:21:44.816Z,6.24
2018-12-02T09:24:13.556Z,5.76
2018-12-02T09:26:42.094Z,6.25
2018-12-02T09:29:11.060Z,6.26
2018-12-02T09:31:39.574Z,6.27
2018-12-02T09:34:08.154Z,6.31
2018-12-02T09:36:36.834Z,6.30
2018-12-02T09:39:09.111Z,6.28
2018-12-02T09:41:37.954Z,6.27
2018-12-02T09:44:06.806Z,6.28
2018-12-02T09:46:35.318Z,6.29
2018-12-02T09:49:03.941Z,6.28
2018-12-02T09:51:32.793Z,6.23
2018-12-02T09:54:01.977Z,6.26
2018-12-02T09:56:30.914Z,6.28
2018-12-02T09:58:59.492Z,6.30
2018-12-02T10:01:28.266Z,6.30
2018-12-02T10:03:56.863Z,6.26
2018-12-02T10:06:25.635Z,6.31
2018-12-02T10:08:54.388Z,6.34
2018-12-02T10:11:22.932Z,6.35
2018-12-02T10:13:51.690Z,6.37
2018-12-02T10:16:20.206Z,6.37
2018-12-02T10:18:49.152Z,6.36
2018-12-02T10:21:17.694Z,6.36
2018-12-02T10:23:46.336Z,6.33
2018-12-02T10:26:15.050Z,6.35
2018-12-02T10:28:43.615Z,6.34
2018-12-02T10:31:12.320Z,6.33
2018-12-02T10:33:40.942Z,6.32
2018-12-02T10:36:09.975Z,5.94
2018-12-02T10:38:38.505Z,6.32
2018-12-02T10:41:07.450Z,6.33
2018-12-02T10:43:36.002Z,6.28
2018-12-02T10:46:04.710Z,6.30
2018-12-02T10:48:33.358Z,6.33
2018-12-02T10:51:01.993Z,6.36
2018-12-02T10:53:30.586Z,5.81
2018-12-02T10:56:00.396Z,6.36
2018-12-02T10:58:34.243Z,6.39
2018-12-02T11:01:08.923Z,6.35
2018-12-02T11:03:37.546Z,6.38
2018-12-02T11:06:06.259Z,6.34
2018-12-02T11:08:34.862Z,6.37
2018-12-02T11:11:03.570Z,6.29
2018-12-02T11:13:32.082Z,6.41
2018-12-02T11:16:00.848Z,5.78
2018-12-02T11:18:30.530Z,6.42
2018-12-02T11:20:59.377Z,6.01
2018-12-02T11:23:28.111Z,6.40
2018-12-02T11:25:56.946Z,6.42
2018-12-02T11:28:25.469Z,6.40
2018-12-02T11:30:54.097Z,6.42
2018-12-02T11:33:22.715Z,6.41
2018-12-02T11:35:51.258Z,6.42
2018-12-02T11:38:20.102Z,6.43
2018-12-02T11:40:48.718Z,6.42
2018-12-02T11:43:17.530Z,6.03
2018-12-02T11:45:46.078Z,6.43
2018-12-02T11:48:14.726Z,6.44
2018-12-02T11:50:43.269Z,6.47
2018-12-02T11:53:11.808Z,6.45
2018-12-02T11:55:40.654Z,6.45
2018-12-02T11:58:09.173Z,6.46
2018-12-02T12:00:39.434Z,6.42
2018-12-02T12:03:08.048Z,6.42
2018-12-02T12:05:37.500Z,5.78
2018-12-02T12:08:08.783Z,6.42
2018-12-02T12:10:37.519Z,6.44
2018-12-02T12:13:06.246Z,6.43
2018-12-02T12:15:35.317Z,6.44
2018-12-02T12:18:03.850Z,6.45
2018-12-02T12:20:35.135Z,6.45
2018-12-02T12:23:03.734Z,6.45
2018-12-02T12:25:32.519Z,5.82
2018-12-02T12:28:01.204Z,6.48
2018-12-02T12:30:31.394Z,6.45
2018-12-02T12:33:00.097Z,6.46
2018-12-02T12:35:29.066Z,6.47
2018-12-02T12:37:57.735Z,6.48
2018-12-02T12:40:35.458Z,6.48
2018-12-02T12:43:40.178Z,6.50
2018-12-02T12:46:09.110Z,6.51
2018-12-02T12:48:37.647Z,6.50
2018-12-02T12:51:06.442Z,6.50
2018-12-02T12:53:34.962Z,6.48
2018-12-02T12:56:03.658Z,6.49
2018-12-02T12:58:32.203Z,6.48
2018-12-02T13:01:00.760Z,6.47
2018-12-02T13:03:29.478Z,5.85
2018-12-02T13:05:58.086Z,6.49
2018-12-02T13:08:27.268Z,6.22
2018-12-02T13:10:55.835Z,6.49
2018-12-02T13:13:24.687Z,6.51
2018-12-02T13:15:53.214Z,6.49
2018-12-02T13:18:21.766Z,6.49
2018-12-02T13:20:55.492Z,6.50
2018-12-02T13:23:24.305Z,6.49
2018-12-02T13:25:53.072Z,6.49
2018-12-02T13:28:22.151Z,6.47
2018-12-02T13:30:51.569Z,6.48
2018-12-02T13:33:20.357Z,6.46
2018-12-02T13:35:48.886Z,6.49
2018-12-02T13:38:17.570Z,6.50
2018-12-02T13:40:46.212Z,6.49
2018-12-02T13:43:16.471Z,6.47
2018-12-02T13:45:45.509Z,6.46
2018-12-02T13:48:14.108Z,6.45
2018-12-02T13:50:43.206Z,6.47
2018-12-02T13:53:11.796Z,6.45
2018-12-02T13:55:40.677Z,6.16
2018-12-02T13:58:09.279Z,6.44
2018-12-02T14:00:39.685Z,6.43
2018-12-02T14:03:09.606Z,6.44
2018-12-02T14:05:42.019Z,6.42
2018-12-02T14:08:10.760Z,6.44
2018-12-02T14:10:39.483Z,6.13
2018-12-02T14:13:17.226Z,6.40
2018-12-02T14:16:55.459Z,6.40
2018-12-02T14:19:24.142Z,6.37
2018-12-02T14:21:53.830Z,6.37
2018-12-02T14:24:22.374Z,6.34
2018-12-02T14:26:51.514Z,6.37
2018-12-02T14:29:25.325Z,6.38
2018-12-02T14:31:56.874Z,6.38
2018-12-02T14:34:25.420Z,6.38
2018-12-02T14:36:53.995Z,6.37
2018-12-02T14:39:22.638Z,6.37
2018-12-02T14:41:51.398Z,6.32
2018-12-02T14:44:20.039Z,6.35
2018-12-02T14:46:49.277Z,6.07
2018-12-02T14:49:17.830Z,6.34
2018-12-02T14:51:46.569Z,6.34
2018-12-02T14:54:15.171Z,6.35
2018-12-02T14:56:43.738Z,6.34
2018-12-02T14:59:12.385Z,6.03
2018-12-02T15:01:40.934Z,6.33
2018-12-02T15:04:09.798Z,6.32
2018-12-02T15:06:38.344Z,6.32
2018-12-02T15:09:11.015Z,6.30
2018-12-02T15:11:39.626Z,6.31
2018-12-02T15:14:10.185Z,6.32
2018-12-02T15:16:38.726Z,6.34
2018-12-02T15:19:08.638Z,6.25
2018-12-02T15:21:37.248Z,6.25
2018-12-02T15:24:06.137Z,6.28
2018-12-02T15:26:34.695Z,6.28
2018-12-02T15:29:03.471Z,6.31
2018-12-02T15:31:32.115Z,6.31
2018-12-02T15:34:00.848Z,6.29
2018-12-02T15:36:29.399Z,6.30
2018-12-02T15:38:58.034Z,6.30
2018-12-02T15:41:26.712Z,6.28
2018-12-02T15:43:55.267Z,6.29
2018-12-02T15:46:24.259Z,6.30
2018-12-02T15:48:52.780Z,6.30
2018-12-02T15:51:21.546Z,6.30
2018-12-02T15:53:50.114Z,6.29
2018-12-02T15:56:18.782Z,6.31
2018-12-02T15:58:48.347Z,6.31
2018-12-02T16:01:16.984Z,6.29
2018-12-02T16:03:45.635Z,6.27
2018-12-02T16:06:14.154Z,6.29
2018-12-02T16:08:44.033Z,6.28
2018-12-02T16:11:12.593Z,6.29
2018-12-02T16:13:41.451Z,6.29
2018-12-02T16:16:10.071Z,6.28
2018-12-02T16:18:38.668Z,6.28
2018-12-02T16:21:08.002Z,6.30
2018-12-02T16:23:36.647Z,6.27
2018-12-02T16:26:05.318Z,6.24
2018-12-02T16:28:33.842Z,6.27
2018-12-02T16:31:02.696Z,6.26
2018-12-02T16:33:31.219Z,6.26
2018-12-02T16:36:00.277Z,6.25
2018-12-02T16:38:29.039Z,6.27
2018-12-02T16:40:57.706Z,6.26
2018-12-02T16:43:26.246Z,6.27
2018-12-02T16:45:55.916Z,6.22
2018-12-02T16:48:24.470Z,6.25
2018-12-02T16:50:53.034Z,6.26
2018-12-02T16:53:25.262Z,6.26
2018-12-02T16:55:58.653Z,6.27
2018-12-02T16:59:29.695Z,6.28
2018-12-02T17:02:04.905Z,6.28
2018-12-02T17:04:29.460Z,6.29
2018-12-02T17:06:58.244Z,6.27
2018-12-02T17:09:26.845Z,6.27
2018-12-02T17:11:55.513Z,6.31
2018-12-02T17:14:24.379Z,6.20
2018-12-02T17:16:52.927Z,6.31
2018-12-02T17:19:22.154Z,6.31
2018-12-02T17:21:50.788Z,6.31
2018-12-02T17:24:20.203Z,5.64
2018-12-02T17:26:49.116Z,6.32
2018-12-02T17:29:22.568Z,6.33
2018-12-02T17:32:01.501Z,6.32
2018-12-02T17:34:31.141Z,5.95
2018-12-02T17:36:59.710Z,6.31
2018-12-02T17:39:30.988Z,6.32
2018-12-02T17:42:05.281Z,6.32
2018-12-02T17:44:35.508Z,6.33
2018-12-02T17:47:08.083Z,6.32
2018-12-02T17:49:38.760Z,6.32
2018-12-02T17:52:08.962Z,6.32
2018-12-02T17:54:38.884Z,6.30
2018-12-02T17:57:08.579Z,6.26
2018-12-02T17:59:38.167Z,6.31
2018-12-02T18:02:07.682Z,6.33
2018-12-02T18:04:37.563Z,6.32
2018-12-02T18:07:06.596Z,6.33
2018-12-02T18:09:35.972Z,6.33
2018-12-02T18:12:04.759Z,6.33
2018-12-02T18:14:33.876Z,6.33
2018-12-02T18:17:03.392Z,6.32
2018-12-02T18:19:32.174Z,6.34
2018-12-02T18:22:02.471Z,6.35
2018-12-02T18:24:32.593Z,6.36
2018-12-02T18:27:02.469Z,6.37
2018-12-02T18:29:31.501Z,6.36
2018-12-02T18:32:01.766Z,6.38
2018-12-02T18:34:32.538Z,6.08
2018-12-02T18:37:01.134Z,6.35
2018-12-02T18:39:31.817Z,5.69
2018-12-02T18:42:03.088Z,6.34
2018-12-02T18:44:32.930Z,6.37
2018-12-02T18:47:01.591Z,6.37
2018-12-02T18:49:30.255Z,6.36
2018-12-02T18:51:59.558Z,6.33
2018-12-02T18:54:28.600Z,6.35
2018-12-02T18:56:56.992Z,6.34
2018-12-02T18:59:27.245Z,6.35
2018-12-02T19:01:55.882Z,6.34
2018-12-02T19:04:24.624Z,6.35
2018-12-02T19:06:58.544Z,6.35
2018-12-02T19:09:22.584Z,6.36
2018-12-02T19:11:51.150Z,6.35
2018-12-02T19:14:19.781Z,6.34
2018-12-02T19:16:53.438Z,6.33
2018-12-02T19:19:22.078Z,6.34
2018-12-02T19:21:50.809Z,6.32
2018-12-02T19:24:19.618Z,6.32
2018-12-02T19:26:48.202Z,6.33
2018-12-02T19:29:16.806Z,6.33
2018-12-02T19:31:45.367Z,6.33
2018-12-02T19:34:13.956Z,6.30
2018-12-02T19:36:49.974Z,6.26
2018-12-02T19:39:18.695Z,6.28
2018-12-02T19:41:47.258Z,6.26
2018-12-02T19:44:16.074Z,6.29
2018-12-02T19:46:44.664Z,6.29
2018-12-02T19:49:13.281Z,6.32
2018-12-02T19:51:41.806Z,6.29
2018-12-02T19:54:10.342Z,6.24
2018-12-02T19:56:39.064Z,6.26
2018-12-02T19:59:07.590Z,6.26
2018-12-02T20:01:36.355Z,6.27
2018-12-02T20:04:05.330Z,6.25
2018-12-02T20:06:34.193Z,6.23
2018-12-02T20:09:02.762Z,6.23
2018-12-02T20:11:31.498Z,6.23
2018-12-02T20:14:00.011Z,6.25
2018-12-02T20:16:28.626Z,6.25
2018-12-02T20:18:57.190Z,6.25
2018-12-02T20:21:26.276Z,6.24
2018-12-02T20:24:00.579Z,6.25
2018-12-02T20:26:29.360Z,6.25
2018-12-02T20:28:58.642Z,6.26
2018-12-02T20:31:28.967Z,6.26
2018-12-02T20:33:57.531Z,6.25
2018-12-02T20:36:26.157Z,6.25
2018-12-02T20:38:55.022Z,6.26
2018-12-02T20:41:23.618Z,6.27
2018-12-02T20:43:52.272Z,6.27
2018-12-02T20:46:20.864Z,6.25
2018-12-02T20:48:49.579Z,6.27
2018-12-02T20:51:18.214Z,6.28
2018-12-02T20:53:47.128Z,6.27
2018-12-02T20:56:15.700Z,6.28
2018-12-02T20:58:44.233Z,6.28
2018-12-02T21:01:12.862Z,6.28
2018-12-02T21:03:44.664Z,6.28
2018-12-02T21:06:16.546Z,6.30
2018-12-02T21:08:45.267Z,6.30
2018-12-02T21:11:14.074Z,6.30
2018-12-02T21:13:43.087Z,6.30
2018-12-02T21:16:11.734Z,6.31
2018-12-02T21:18:40.293Z,6.30
2018-12-02T21:21:08.900Z,6.29
2018-12-02T21:23:37.496Z,6.27
2018-12-02T21:26:08.215Z,6.28
2018-12-02T21:28:36.945Z,6.27
2018-12-02T21:31:05.728Z,5.64
2018-12-02T21:33:34.469Z,6.30
2018-12-02T21:36:03.419Z,6.31
2018-12-02T21:38:31.951Z,6.30
2018-12-02T21:41:00.858Z,6.30
2018-12-02T21:43:29.418Z,6.31
2018-12-02T21:45:58.131Z,6.31
2018-12-02T21:48:26.654Z,6.30
2018-12-02T21:50:56.234Z,6.32
2018-12-02T21:53:24.879Z,6.33
2018-12-02T21:55:53.463Z,6.32
2018-12-02T21:58:22.268Z,6.33
2018-12-02T22:00:56.048Z,6.30
2018-12-02T22:03:24.594Z,6.31
2018-12-02T22:05:53.211Z,6.32
2018-12-02T22:08:21.806Z,6.23
2018-12-02T22:10:50.410Z,6.33
2018-12-02T22:13:19.058Z,5.74
2018-12-02T22:15:47.573Z,6.34
2018-12-02T22:18:16.255Z,6.03
2018-12-02T22:20:44.825Z,6.34
2018-12-02T22:23:13.378Z,6.35
2018-12-02T22:25:42.030Z,6.34
2018-12-02T22:28:10.632Z,6.34
2018-12-02T22:30:39.460Z,6.36
2018-12-02T22:33:08.219Z,6.34
2018-12-02T22:35:37.174Z,6.34
2018-12-02T22:38:06.107Z,6.34
2018-12-02T22:40:34.929Z,6.33
2018-12-02T22:43:03.559Z,6.34
2018-12-02T22:45:32.128Z,6.34
2018-12-02T22:48:00.694Z,6.34
2018-12-02T22:50:29.822Z,6.34
2018-12-02T22:52:59.862Z,5.65
2018-12-02T22:55:28.446Z,6.35
2018-12-02T22:57:57.118Z,6.35
2018-12-02T23:00:32.189Z,6.37
2018-12-02T23:03:03.329Z,6.36
2018-12-02T23:05:32.314Z,6.37
2018-12-02T23:08:01.205Z,6.38
2018-12-02T23:10:29.988Z,6.39
2018-12-02T23:12:58.449Z,6.38
2018-12-02T23:15:27.174Z,6.38
2018-12-02T23:17:55.765Z,6.37
2018-12-02T23:20:24.666Z,6.38
2018-12-02T23:22:53.317Z,6.38
2018-12-02T23:25:21.899Z,6.39
2018-12-02T23:27:50.662Z,6.41
2018-12-02T23:30:20.202Z,6.41
2018-12-02T23:32:49.062Z,6.44
2018-12-02T23:35:17.540Z,6.44
2018-12-02T23:37:46.233Z,6.43
2018-12-02T23:40:24.362Z,6.45
2018-12-02T23:42:53.448Z,6.44
2018-12-02T23:45:22.147Z,6.45
2018-12-02T23:47:50.717Z,6.45
2018-12-02T23:50:20.812Z,6.44
2018-12-02T23:52:49.386Z,6.45
2018-12-02T23:55:18.946Z,6.46
2018-12-02T23:57:47.586Z,6.46
